sensor_id;sensor_type;location;lat;lon;timestamp;temperature;humidity
4207;DHT22;2117;47.972;7.830;2022-10-30T02:30:43;14.00;99.90
4207;DHT22;2117;47.972;7.830;2022-10-30T02:33:09;13.90;99.90
4207;DHT22;2117;47.972;7.830;2022-10-30T02:35:35;14.00;99.90
4207;DHT22;2117;47.972;7.830;2022-10-30T02:38:01;14.00;99.90
4207;DHT22;2117;47.972;7.830;2022-10-30T02:40:26;14.00;99.90
4207;DHT22;2117;47.972;7.830;2022-10-30T02:42:53;14.00;99.90
4207;DHT22;2117;47.972;7.830;2022-10-30T02:45:19;14.00;99.90
4207;DHT22;2117;47.972;7.830;2022-10-30T02:47:45;14.00;99.90
4207;DHT22;2117;47.972;7.830;2022-10-30T02:50:11;14.00;99.90
4207;DHT22;2117;47.972;7.830;2022-10-30T02:52:36;14.00;99.90
4207;DHT22;2117;47.972;7.830;2022-10-30T02:55:02;14.10;99.90
4207;DHT22;2117;47.972;7.830;2022-10-30T02:57:28;14.00;99.90
4207;DHT22;2117;47.972;7.830;2022-10-30T02:59:53;14.10;99.90
4207;DHT22;2117;47.972;7.830;2022-10-30T03:02:19;13.90;99.90
4207;DHT22;2117;47.972;7.830;2022-10-30T03:04:45;13.90;99.90
4207;DHT22;2117;47.972;7.830;2022-10-30T03:07:10;13.90;99.90
4207;DHT22;2117;47.972;7.830;2022-10-30T03:09:36;13.80;99.90
4207;DHT22;2117;47.972;7.830;2022-10-30T03:12:01;13.80;99.90
4207;DHT22;2117;47.972;7.830;2022-10-30T03:14:27;13.70;99.90
4207;DHT22;2117;47.972;7.830;2022-10-30T03:16:52;13.70;99.90
4207;DHT22;2117;47.972;7.830;2022-10-30T03:19:18;13.70;99.90
4207;DHT22;2117;47.972;7.830;2022-10-30T03:21:44;13.60;99.90
4207;DHT22;2117;47.972;7.830;2022-10-30T03:24:09;13.60;99.90
4207;DHT22;2117;47.972;7.830;2022-10-30T03:26:35;13.50;99.90
4207;DHT22;2117;47.972;7.830;2022-10-30T03:29:01;13.50;99.90
4207;DHT22;2117;47.972;7.830;2022-10-30T03:31:26;13.50;99.90
4207;DHT22;2117;47.972;7.830;2022-10-30T03:33:54;13.50;99.90
4207;DHT22;2117;47.972;7.830;2022-10-30T03:36:20;13.40;99.90
4207;DHT22;2117;47.972;7.830;2022-10-30T03:38:45;13.40;99.90
4207;DHT22;2117;47.972;7.830;2022-10-30T03:41:11;13.30;99.90
4207;DHT22;2117;47.972;7.830;2022-10-30T03:43:37;13.30;99.90
4207;DHT22;2117;47.972;7.830;2022-10-30T03:46:02;13.30;99.90
4207;DHT22;2117;47.972;7.830;2022-10-30T03:48:28;13.20;99.90
4207;DHT22;2117;47.972;7.830;2022-10-30T03:50:55;13.20;99.90
4207;DHT22;2117;47.972;7.830;2022-10-30T03:53:21;13.20;99.90
4207;DHT22;2117;47.972;7.830;2022-10-30T03:55:48;13.20;99.90
4207;DHT22;2117;47.972;7.830;2022-10-30T03:58:14;13.20;99.90
4207;DHT22;2117;47.972;7.830;2022-10-30T04:00:40;13.10;99.90
4207;DHT22;2117;47.972;7.830;2022-10-30T04:03:07;13.10;99.90
4207;DHT22;2117;47.972;7.830;2022-10-30T04:05:33;13.00;99.90
4207;DHT22;2117;47.972;7.830;2022-10-30T04:08:05;13.00;99.90
4207;DHT22;2117;47.972;7.830;2022-10-30T04:10:31;13.00;99.90
4207;DHT22;2117;47.972;7.830;2022-10-30T04:13:01;13.00;99.90
4207;DHT22;2117;47.972;7.830;2022-10-30T04:15:28;12.90;99.90
4207;DHT22;2117;47.972;7.830;2022-10-30T04:17:54;12.90;99.90
4207;DHT22;2117;47.972;7.830;2022-10-30T04:20:21;12.90;99.90
4207;DHT22;2117;47.972;7.830;2022-10-30T04:22:47;12.90;99.90
4207;DHT22;2117;47.972;7.830;2022-10-30T04:25:13;12.90;99.90
4207;DHT22;2117;47.972;7.830;2022-10-30T04:27:43;12.80;99.90
4207;DHT22;2117;47.972;7.830;2022-10-30T04:30:10;12.80;99.90
4207;DHT22;2117;47.972;7.830;2022-10-30T04:32:44;12.80;99.90
4207;DHT22;2117;47.972;7.830;2022-10-30T04:35:10;12.80;99.90
4207;DHT22;2117;47.972;7.830;2022-10-30T04:37:35;12.70;99.90
4207;DHT22;2117;47.972;7.830;2022-10-30T04:40:01;12.70;99.90
4207;DHT22;2117;47.972;7.830;2022-10-30T04:42:26;12.70;99.90
4207;DHT22;2117;47.972;7.830;2022-10-30T04:44:52;12.70;99.90
4207;DHT22;2117;47.972;7.830;2022-10-30T04:47:17;12.70;99.90
4207;DHT22;2117;47.972;7.830;2022-10-30T04:49:43;12.70;99.90
4207;DHT22;2117;47.972;7.830;2022-10-30T04:52:08;12.60;99.90
4207;DHT22;2117;47.972;7.830;2022-10-30T04:54:34;12.60;99.90
4207;DHT22;2117;47.972;7.830;2022-10-30T04:56:59;12.60;99.90
4207;DHT22;2117;47.972;7.830;2022-10-30T04:59:25;12.60;99.90
4207;DHT22;2117;47.972;7.830;2022-10-30T05:01:50;12.60;99.90
4207;DHT22;2117;47.972;7.830;2022-10-30T05:04:16;12.50;99.90
4207;DHT22;2117;47.972;7.830;2022-10-30T05:06:41;12.50;99.90
4207;DHT22;2117;47.972;7.830;2022-10-30T05:09:07;12.50;99.90
4207;DHT22;2117;47.972;7.830;2022-10-30T05:11:33;12.50;99.90
4207;DHT22;2117;47.972;7.830;2022-10-30T05:13:58;12.50;99.90
4207;DHT22;2117;47.972;7.830;2022-10-30T05:16:24;12.40;99.90
4207;DHT22;2117;47.972;7.830;2022-10-30T05:18:49;12.30;99.90
4207;DHT22;2117;47.972;7.830;2022-10-30T05:21:15;12.30;99.90
4207;DHT22;2117;47.972;7.830;2022-10-30T05:23:43;12.30;99.90
4207;DHT22;2117;47.972;7.830;2022-10-30T05:26:09;12.30;99.90
4207;DHT22;2117;47.972;7.830;2022-10-30T05:28:34;12.30;99.90
4207;DHT22;2117;47.972;7.830;2022-10-30T05:31:00;12.30;99.90
4207;DHT22;2117;47.972;7.830;2022-10-30T05:33:25;12.30;99.90
4207;DHT22;2117;47.972;7.830;2022-10-30T05:35:51;12.30;99.90
4207;DHT22;2117;47.972;7.830;2022-10-30T05:38:17;12.20;99.90
4207;DHT22;2117;47.972;7.830;2022-10-30T05:40:45;12.30;99.90
4207;DHT22;2117;47.972;7.830;2022-10-30T05:43:10;12.30;99.90
4207;DHT22;2117;47.972;7.830;2022-10-30T05:45:36;12.30;99.90
4207;DHT22;2117;47.972;7.830;2022-10-30T05:48:05;12.30;99.90
4207;DHT22;2117;47.972;7.830;2022-10-30T05:50:32;12.30;99.90
4207;DHT22;2117;47.972;7.830;2022-10-30T05:52:59;12.30;99.90
4207;DHT22;2117;47.972;7.830;2022-10-30T05:55:26;12.30;99.90
4207;DHT22;2117;47.972;7.830;2022-10-30T05:57:55;12.30;99.90
4207;DHT22;2117;47.972;7.830;2022-10-30T06:00:21;12.30;99.90
4207;DHT22;2117;47.972;7.830;2022-10-30T06:02:47;12.30;99.90
4207;DHT22;2117;47.972;7.830;2022-10-30T06:05:12;12.20;99.90
4207;DHT22;2117;47.972;7.830;2022-10-30T06:07:38;12.20;99.90
4207;DHT22;2117;47.972;7.830;2022-10-30T06:10:04;12.20;99.90
4207;DHT22;2117;47.972;7.830;2022-10-30T06:12:29;12.20;99.90
4207;DHT22;2117;47.972;7.830;2022-10-30T06:14:55;12.20;99.90
4207;DHT22;2117;47.972;7.830;2022-10-30T06:17:21;12.20;99.90
4207;DHT22;2117;47.972;7.830;2022-10-30T06:19:46;12.20;99.90
4207;DHT22;2117;47.972;7.830;2022-10-30T06:22:12;12.20;99.90
4207;DHT22;2117;47.972;7.830;2022-10-30T06:24:37;12.10;99.90
4207;DHT22;2117;47.972;7.830;2022-10-30T06:27:03;12.10;99.90
4207;DHT22;2117;47.972;7.830;2022-10-30T06:29:28;12.10;99.90
4207;DHT22;2117;47.972;7.830;2022-10-30T06:31:54;12.10;99.90
4207;DHT22;2117;47.972;7.830;2022-10-30T06:34:19;12.10;99.90
4207;DHT22;2117;47.972;7.830;2022-10-30T06:36:45;12.10;99.90
4207;DHT22;2117;47.972;7.830;2022-10-30T06:39:10;12.00;99.90
4207;DHT22;2117;47.972;7.830;2022-10-30T06:41:36;12.00;99.90
4207;DHT22;2117;47.972;7.830;2022-10-30T06:44:02;12.10;99.90
4207;DHT22;2117;47.972;7.830;2022-10-30T06:46:28;12.10;99.90
4207;DHT22;2117;47.972;7.830;2022-10-30T06:48:53;12.10;99.90
4207;DHT22;2117;47.972;7.830;2022-10-30T06:51:19;12.10;99.90
4207;DHT22;2117;47.972;7.830;2022-10-30T06:53:45;12.10;99.90
4207;DHT22;2117;47.972;7.830;2022-10-30T06:56:10;12.20;99.90
4207;DHT22;2117;47.972;7.830;2022-10-30T06:58:36;12.20;99.90
4207;DHT22;2117;47.972;7.830;2022-10-30T07:01:07;12.20;99.90
4207;DHT22;2117;47.972;7.830;2022-10-30T07:03:33;12.20;99.90
4207;DHT22;2117;47.972;7.830;2022-10-30T07:05:59;12.20;99.90
4207;DHT22;2117;47.972;7.830;2022-10-30T07:08:25;12.20;99.90
4207;DHT22;2117;47.972;7.830;2022-10-30T07:10:50;12.30;99.90
4207;DHT22;2117;47.972;7.830;2022-10-30T07:13:16;12.30;99.90
4207;DHT22;2117;47.972;7.830;2022-10-30T07:15:42;12.30;99.90
4207;DHT22;2117;47.972;7.830;2022-10-30T07:18:09;12.30;99.90
4207;DHT22;2117;47.972;7.830;2022-10-30T07:20:35;12.30;99.90
4207;DHT22;2117;47.972;7.830;2022-10-30T07:23:01;12.30;99.90
4207;DHT22;2117;47.972;7.830;2022-10-30T07:25:28;12.30;99.90
4207;DHT22;2117;47.972;7.830;2022-10-30T07:27:54;12.40;99.90
4207;DHT22;2117;47.972;7.830;2022-10-30T07:30:25;12.40;99.90
4207;DHT22;2117;47.972;7.830;2022-10-30T07:33:05;12.50;99.90
4207;DHT22;2117;47.972;7.830;2022-10-30T07:35:32;12.50;99.90
4207;DHT22;2117;47.972;7.830;2022-10-30T07:40:28;12.60;99.90
4207;DHT22;2117;47.972;7.830;2022-10-30T07:42:58;12.60;99.90
4207;DHT22;2117;47.972;7.830;2022-10-30T07:45:24;12.70;99.90
4207;DHT22;2117;47.972;7.830;2022-10-30T07:47:51;12.70;99.90
4207;DHT22;2117;47.972;7.830;2022-10-30T07:50:16;12.70;99.90
4207;DHT22;2117;47.972;7.830;2022-10-30T07:52:42;12.80;99.90
4207;DHT22;2117;47.972;7.830;2022-10-30T07:55:07;12.90;99.90
4207;DHT22;2117;47.972;7.830;2022-10-30T07:57:37;12.90;99.90
4207;DHT22;2117;47.972;7.830;2022-10-30T08:00:05;13.00;99.90
4207;DHT22;2117;47.972;7.830;2022-10-30T08:02:31;13.00;99.90
4207;DHT22;2117;47.972;7.830;2022-10-30T08:04:57;13.20;99.90
4207;DHT22;2117;47.972;7.830;2022-10-30T08:07:22;13.20;99.90
4207;DHT22;2117;47.972;7.830;2022-10-30T08:09:48;13.30;99.90
4207;DHT22;2117;47.972;7.830;2022-10-30T08:12:14;13.40;99.90
4207;DHT22;2117;47.972;7.830;2022-10-30T08:14:39;13.50;99.90
4207;DHT22;2117;47.972;7.830;2022-10-30T08:17:05;13.50;99.90
4207;DHT22;2117;47.972;7.830;2022-10-30T08:19:34;13.60;99.90
4207;DHT22;2117;47.972;7.830;2022-10-30T08:22:00;13.70;99.90
4207;DHT22;2117;47.972;7.830;2022-10-30T08:24:26;13.90;99.90
4207;DHT22;2117;47.972;7.830;2022-10-30T08:26:52;13.90;99.90
4207;DHT22;2117;47.972;7.830;2022-10-30T08:29:17;14.00;99.90
4207;DHT22;2117;47.972;7.830;2022-10-30T08:31:43;14.10;99.90
4207;DHT22;2117;47.972;7.830;2022-10-30T08:34:08;14.30;99.90
4207;DHT22;2117;47.972;7.830;2022-10-30T08:36:34;14.30;99.90
4207;DHT22;2117;47.972;7.830;2022-10-30T08:39:00;14.50;99.90
4207;DHT22;2117;47.972;7.830;2022-10-30T08:41:28;14.50;99.90
4207;DHT22;2117;47.972;7.830;2022-10-30T08:43:54;14.60;99.90
4207;DHT22;2117;47.972;7.830;2022-10-30T08:46:19;14.70;99.90
4207;DHT22;2117;47.972;7.830;2022-10-30T08:48:45;14.70;99.90
4207;DHT22;2117;47.972;7.830;2022-10-30T08:51:11;14.90;99.90
4207;DHT22;2117;47.972;7.830;2022-10-30T08:53:36;14.90;99.90
4207;DHT22;2117;47.972;7.830;2022-10-30T08:56:02;15.00;99.90
4207;DHT22;2117;47.972;7.830;2022-10-30T08:58:27;15.10;99.90
4207;DHT22;2117;47.972;7.830;2022-10-30T09:00:53;15.20;99.90
4207;DHT22;2117;47.972;7.830;2022-10-30T09:03:18;15.30;99.90
4207;DHT22;2117;47.972;7.830;2022-10-30T09:05:44;15.40;99.90
4207;DHT22;2117;47.972;7.830;2022-10-30T09:08:10;15.50;99.90
4207;DHT22;2117;47.972;7.830;2022-10-30T09:10:35;15.60;99.90
4207;DHT22;2117;47.972;7.830;2022-10-30T09:13:01;15.70;99.90
4207;DHT22;2117;47.972;7.830;2022-10-30T09:15:27;15.80;99.90
4207;DHT22;2117;47.972;7.830;2022-10-30T09:18:10;15.90;99.90
4207;DHT22;2117;47.972;7.830;2022-10-30T09:20:36;16.00;99.90
4207;DHT22;2117;47.972;7.830;2022-10-30T09:23:02;16.10;99.90
4207;DHT22;2117;47.972;7.830;2022-10-30T09:25:28;16.20;99.90
4207;DHT22;2117;47.972;7.830;2022-10-30T09:27:53;16.30;99.90
4207;DHT22;2117;47.972;7.830;2022-10-30T09:30:19;16.30;99.90
4207;DHT22;2117;47.972;7.830;2022-10-30T09:32:45;16.50;99.90
4207;DHT22;2117;47.972;7.830;2022-10-30T09:35:17;16.50;99.90
4207;DHT22;2117;47.972;7.830;2022-10-30T09:37:43;16.60;99.90
4207;DHT22;2117;47.972;7.830;2022-10-30T09:40:10;16.60;99.90
4207;DHT22;2117;47.972;7.830;2022-10-30T09:42:45;16.70;99.90
4207;DHT22;2117;47.972;7.830;2022-10-30T09:50:45;17.10;99.90
4207;DHT22;2117;47.972;7.830;2022-10-30T09:53:36;17.10;99.90
4207;DHT22;2117;47.972;7.830;2022-10-30T09:56:22;17.30;99.90
4207;DHT22;2117;47.972;7.830;2022-10-30T09:59:17;17.40;99.90
4207;DHT22;2117;47.972;7.830;2022-10-30T10:01:56;17.50;99.90
4207;DHT22;2117;47.972;7.830;2022-10-30T10:06:55;17.70;99.90
4207;DHT22;2117;47.972;7.830;2022-10-30T10:09:24;17.80;99.90
4207;DHT22;2117;47.972;7.830;2022-10-30T10:12:28;17.90;99.90
4207;DHT22;2117;47.972;7.830;2022-10-30T10:14:55;18.00;99.90
4207;DHT22;2117;47.972;7.830;2022-10-30T10:17:33;18.00;99.90
4207;DHT22;2117;47.972;7.830;2022-10-30T10:20:01;18.10;99.90
4207;DHT22;2117;47.972;7.830;2022-10-30T10:22:47;18.20;99.90
4207;DHT22;2117;47.972;7.830;2022-10-30T10:25:16;18.30;99.90
4207;DHT22;2117;47.972;7.830;2022-10-30T10:27:55;18.40;99.90
4207;DHT22;2117;47.972;7.830;2022-10-30T10:30:25;18.40;99.90
4207;DHT22;2117;47.972;7.830;2022-10-30T10:35:57;18.60;99.90
4207;DHT22;2117;47.972;7.830;2022-10-30T10:44:21;18.80;99.90
4207;DHT22;2117;47.972;7.830;2022-10-30T10:52:53;19.20;99.90
4207;DHT22;2117;47.972;7.830;2022-10-30T10:55:24;19.30;99.90
4207;DHT22;2117;47.972;7.830;2022-10-30T10:57:52;19.40;99.90
4207;DHT22;2117;47.972;7.830;2022-10-30T11:00:22;19.50;99.90
4207;DHT22;2117;47.972;7.830;2022-10-30T11:03:22;19.60;99.90
4207;DHT22;2117;47.972;7.830;2022-10-30T11:06:11;19.70;99.90
4207;DHT22;2117;47.972;7.830;2022-10-30T11:08:39;19.80;99.90
4207;DHT22;2117;47.972;7.830;2022-10-30T11:11:06;20.00;99.90
4207;DHT22;2117;47.972;7.830;2022-10-30T11:13:37;20.10;99.90
4207;DHT22;2117;47.972;7.830;2022-10-30T11:18:57;20.30;99.90
4207;DHT22;2117;47.972;7.830;2022-10-30T11:21:25;20.40;99.90
4207;DHT22;2117;47.972;7.830;2022-10-30T11:23:51;20.40;99.90
4207;DHT22;2117;47.972;7.830;2022-10-30T11:31:27;20.70;99.90
4207;DHT22;2117;47.972;7.830;2022-10-30T11:36:47;20.90;99.90
4207;DHT22;2117;47.972;7.830;2022-10-30T11:39:27;21.00;99.90
4207;DHT22;2117;47.972;7.830;2022-10-30T11:42:16;21.00;99.90
4207;DHT22;2117;47.972;7.830;2022-10-30T11:44:47;21.20;99.90
4207;DHT22;2117;47.972;7.830;2022-10-30T11:47:15;21.20;99.90
4207;DHT22;2117;47.972;7.830;2022-10-30T11:49:48;21.30;99.90
4207;DHT22;2117;47.972;7.830;2022-10-30T11:52:19;21.40;99.90
4207;DHT22;2117;47.972;7.830;2022-10-30T11:54:49;21.50;99.90
4207;DHT22;2117;47.972;7.830;2022-10-30T11:57:43;21.60;99.90
4207;DHT22;2117;47.972;7.830;2022-10-30T12:00:29;21.70;99.90
4207;DHT22;2117;47.972;7.830;2022-10-30T12:02:57;21.80;99.90
4207;DHT22;2117;47.972;7.830;2022-10-30T12:07:51;22.20;99.90
4207;DHT22;2117;47.972;7.830;2022-10-30T12:10:28;22.30;99.90
4207;DHT22;2117;47.972;7.830;2022-10-30T12:12:53;22.40;99.90
4207;DHT22;2117;47.972;7.830;2022-10-30T12:15:23;22.50;99.90
4207;DHT22;2117;47.972;7.830;2022-10-30T12:18:14;22.60;99.90
4207;DHT22;2117;47.972;7.830;2022-10-30T12:20:45;22.80;99.90
4207;DHT22;2117;47.972;7.830;2022-10-30T12:23:17;22.90;99.90
4207;DHT22;2117;47.972;7.830;2022-10-30T12:25:47;23.00;99.90
4207;DHT22;2117;47.972;7.830;2022-10-30T12:28:16;23.10;99.90
4207;DHT22;2117;47.972;7.830;2022-10-30T12:30:59;23.20;99.90
4207;DHT22;2117;47.972;7.830;2022-10-30T12:33:33;23.40;99.90
4207;DHT22;2117;47.972;7.830;2022-10-30T12:36:06;23.60;99.90
4207;DHT22;2117;47.972;7.830;2022-10-30T12:38:49;23.90;99.90
4207;DHT22;2117;47.972;7.830;2022-10-30T12:41:32;24.10;99.90
4207;DHT22;2117;47.972;7.830;2022-10-30T12:46:59;24.40;99.90
4207;DHT22;2117;47.972;7.830;2022-10-30T12:49:38;24.40;99.90
4207;DHT22;2117;47.972;7.830;2022-10-30T12:52:27;24.50;99.90
4207;DHT22;2117;47.972;7.830;2022-10-30T12:55:23;24.60;99.90
4207;DHT22;2117;47.972;7.830;2022-10-30T12:58:17;24.70;99.90
4207;DHT22;2117;47.972;7.830;2022-10-30T13:00:55;24.80;99.90
4207;DHT22;2117;47.972;7.830;2022-10-30T13:03:40;24.60;99.90
4207;DHT22;2117;47.972;7.830;2022-10-30T13:06:27;24.60;99.90
4207;DHT22;2117;47.972;7.830;2022-10-30T13:09:19;24.60;99.90
4207;DHT22;2117;47.972;7.830;2022-10-30T13:11:58;24.70;99.90
4207;DHT22;2117;47.972;7.830;2022-10-30T13:17:13;24.90;99.90
4207;DHT22;2117;47.972;7.830;2022-10-30T13:19:39;25.00;99.90
4207;DHT22;2117;47.972;7.830;2022-10-30T13:24:54;25.20;99.90
4207;DHT22;2117;47.972;7.830;2022-10-30T13:30:10;25.20;99.90
4207;DHT22;2117;47.972;7.830;2022-10-30T13:35:32;25.20;99.90
4207;DHT22;2117;47.972;7.830;2022-10-30T13:41:05;25.40;99.90
4207;DHT22;2117;47.972;7.830;2022-10-30T13:43:50;25.70;99.90
4207;DHT22;2117;47.972;7.830;2022-10-30T13:50:24;26.10;99.90
4207;DHT22;2117;47.972;7.830;2022-10-30T13:52:21;26.10;99.90
4207;DHT22;2117;47.972;7.830;2022-10-30T14:00:29;26.80;99.90
4207;DHT22;2117;47.972;7.830;2022-10-30T14:06:16;27.20;99.90
4207;DHT22;2117;47.972;7.830;2022-10-30T14:08:52;27.30;99.90
4207;DHT22;2117;47.972;7.830;2022-10-30T14:11:21;27.50;99.90
4207;DHT22;2117;47.972;7.830;2022-10-30T14:13:54;27.70;99.90
4207;DHT22;2117;47.972;7.830;2022-10-30T14:16:33;27.90;99.90
4207;DHT22;2117;47.972;7.830;2022-10-30T14:19:07;27.80;99.90
4207;DHT22;2117;47.972;7.830;2022-10-30T14:21:40;27.90;99.90
4207;DHT22;2117;47.972;7.830;2022-10-30T14:24:13;28.00;99.90
4207;DHT22;2117;47.972;7.830;2022-10-30T14:26:52;28.00;99.90
4207;DHT22;2117;47.972;7.830;2022-10-30T14:37:14;27.10;99.90
4207;DHT22;2117;47.972;7.830;2022-10-30T14:39:44;26.70;99.90
4207;DHT22;2117;47.972;7.830;2022-10-30T14:42:37;26.50;99.90
4207;DHT22;2117;47.972;7.830;2022-10-30T14:45:10;26.40;99.90
4207;DHT22;2117;47.972;7.830;2022-10-30T14:58:25;25.00;99.90
4207;DHT22;2117;47.972;7.830;2022-10-30T15:01:31;24.80;99.90
4207;DHT22;2117;47.972;7.830;2022-10-30T15:04:05;24.60;99.90
4207;DHT22;2117;47.972;7.830;2022-10-30T15:09:16;24.10;99.90
4207;DHT22;2117;47.972;7.830;2022-10-30T15:14:39;23.50;99.90
4207;DHT22;2117;47.972;7.830;2022-10-30T15:17:22;23.50;99.90
4207;DHT22;2117;47.972;7.830;2022-10-30T15:19:48;23.20;99.90
4207;DHT22;2117;47.972;7.830;2022-10-30T15:22:18;23.10;99.90
4207;DHT22;2117;47.972;7.830;2022-10-30T15:24:45;22.70;99.90
4207;DHT22;2117;47.972;7.830;2022-10-30T15:27:18;22.70;99.90
4207;DHT22;2117;47.972;7.830;2022-10-30T15:29:54;22.60;99.90
4207;DHT22;2117;47.972;7.830;2022-10-30T15:32:22;22.40;99.90
4207;DHT22;2117;47.972;7.830;2022-10-30T15:34:56;22.30;99.90
4207;DHT22;2117;47.972;7.830;2022-10-30T15:37:24;22.10;99.90
4207;DHT22;2117;47.972;7.830;2022-10-30T15:40:15;22.00;99.90
4207;DHT22;2117;47.972;7.830;2022-10-30T15:42:41;21.80;99.90
4207;DHT22;2117;47.972;7.830;2022-10-30T15:45:19;21.70;99.90
4207;DHT22;2117;47.972;7.830;2022-10-30T15:47:50;21.50;99.90
4207;DHT22;2117;47.972;7.830;2022-10-30T15:50:18;21.40;99.90
4207;DHT22;2117;47.972;7.830;2022-10-30T15:52:46;21.20;99.90
4207;DHT22;2117;47.972;7.830;2022-10-30T15:55:24;21.00;99.90
4207;DHT22;2117;47.972;7.830;2022-10-30T15:57:51;20.90;99.90
4207;DHT22;2117;47.972;7.830;2022-10-30T16:00:30;20.80;99.90
4207;DHT22;2117;47.972;7.830;2022-10-30T16:03:14;20.60;99.90
4207;DHT22;2117;47.972;7.830;2022-10-30T16:05:40;20.50;99.90
4207;DHT22;2117;47.972;7.830;2022-10-30T16:08:15;20.30;99.90
4207;DHT22;2117;47.972;7.830;2022-10-30T16:10:43;20.10;99.90
4207;DHT22;2117;47.972;7.830;2022-10-30T16:13:18;20.00;99.90
4207;DHT22;2117;47.972;7.830;2022-10-30T16:15:45;19.80;99.90
4207;DHT22;2117;47.972;7.830;2022-10-30T16:18:18;19.70;99.90
4207;DHT22;2117;47.972;7.830;2022-10-30T16:20:54;19.60;99.90
4207;DHT22;2117;47.972;7.830;2022-10-30T16:23:21;19.40;99.90
4207;DHT22;2117;47.972;7.830;2022-10-30T16:25:52;19.50;99.90
4207;DHT22;2117;47.972;7.830;2022-10-30T16:28:35;19.30;99.90
4207;DHT22;2117;47.972;7.830;2022-10-30T16:31:06;19.30;99.90
4207;DHT22;2117;47.972;7.830;2022-10-30T16:33:35;19.20;99.90
4207;DHT22;2117;47.972;7.830;2022-10-30T16:36:02;19.10;99.90
4207;DHT22;2117;47.972;7.830;2022-10-30T16:38:32;19.00;99.90
4207;DHT22;2117;47.972;7.830;2022-10-30T16:41:06;18.80;99.90
4207;DHT22;2117;47.972;7.830;2022-10-30T16:43:38;18.70;99.90
4207;DHT22;2117;47.972;7.830;2022-10-30T16:48:49;18.50;99.90
4207;DHT22;2117;47.972;7.830;2022-10-30T16:51:18;18.40;99.90
4207;DHT22;2117;47.972;7.830;2022-10-30T16:53:46;18.40;99.90
4207;DHT22;2117;47.972;7.830;2022-10-30T16:56:19;18.20;99.90
4207;DHT22;2117;47.972;7.830;2022-10-30T16:58:45;18.20;99.90
4207;DHT22;2117;47.972;7.830;2022-10-30T17:01:11;18.10;99.90
4207;DHT22;2117;47.972;7.830;2022-10-30T17:03:38;18.00;99.90
4207;DHT22;2117;47.972;7.830;2022-10-30T17:06:14;17.90;99.90
4207;DHT22;2117;47.972;7.830;2022-10-30T17:08:51;17.80;99.90
4207;DHT22;2117;47.972;7.830;2022-10-30T17:11:19;17.70;99.90
4207;DHT22;2117;47.972;7.830;2022-10-30T17:16:32;17.50;99.90
4207;DHT22;2117;47.972;7.830;2022-10-30T17:19:00;17.40;99.90
4207;DHT22;2117;47.972;7.830;2022-10-30T17:21:45;17.30;99.90
4207;DHT22;2117;47.972;7.830;2022-10-30T17:24:20;17.30;99.90
4207;DHT22;2117;47.972;7.830;2022-10-30T17:26:54;17.20;99.90
4207;DHT22;2117;47.972;7.830;2022-10-30T17:32:03;17.00;99.90
4207;DHT22;2117;47.972;7.830;2022-10-30T17:34:28;16.90;99.90
4207;DHT22;2117;47.972;7.830;2022-10-30T17:36:54;16.90;99.90
4207;DHT22;2117;47.972;7.830;2022-10-30T17:39:23;16.80;99.90
4207;DHT22;2117;47.972;7.830;2022-10-30T17:41:50;16.70;99.90
4207;DHT22;2117;47.972;7.830;2022-10-30T17:44:19;16.60;99.90
4207;DHT22;2117;47.972;7.830;2022-10-30T17:46:45;16.60;99.90
4207;DHT22;2117;47.972;7.830;2022-10-30T17:51:49;16.50;99.90
4207;DHT22;2117;47.972;7.830;2022-10-30T17:54:15;16.50;99.90
4207;DHT22;2117;47.972;7.830;2022-10-30T17:56:40;16.40;99.90
4207;DHT22;2117;47.972;7.830;2022-10-30T17:59:06;16.40;99.90
4207;DHT22;2117;47.972;7.830;2022-10-30T18:01:32;16.50;99.90
4207;DHT22;2117;47.972;7.830;2022-10-30T18:03:57;16.70;99.90
4207;DHT22;2117;47.972;7.830;2022-10-30T18:06:25;16.90;99.90
4207;DHT22;2117;47.972;7.830;2022-10-30T18:08:52;17.00;99.90
4207;DHT22;2117;47.972;7.830;2022-10-30T18:11:19;16.80;99.90
4207;DHT22;2117;47.972;7.830;2022-10-30T18:13:46;16.70;99.90
4207;DHT22;2117;47.972;7.830;2022-10-30T18:16:14;16.50;99.90
4207;DHT22;2117;47.972;7.830;2022-10-30T18:18:40;16.40;99.90
4207;DHT22;2117;47.972;7.830;2022-10-30T18:21:11;16.30;99.90
4207;DHT22;2117;47.972;7.830;2022-10-30T18:23:37;16.20;99.90
4207;DHT22;2117;47.972;7.830;2022-10-30T18:26:03;16.10;99.90
4207;DHT22;2117;47.972;7.830;2022-10-30T18:28:28;16.00;99.90
4207;DHT22;2117;47.972;7.830;2022-10-30T18:30:55;15.90;99.90
4207;DHT22;2117;47.972;7.830;2022-10-30T18:33:23;15.90;99.90
4207;DHT22;2117;47.972;7.830;2022-10-30T18:35:48;15.80;99.90
4207;DHT22;2117;47.972;7.830;2022-10-30T18:38:14;15.80;99.90
4207;DHT22;2117;47.972;7.830;2022-10-30T18:40:42;15.80;99.90
4207;DHT22;2117;47.972;7.830;2022-10-30T18:43:12;15.70;99.90
4207;DHT22;2117;47.972;7.830;2022-10-30T18:45:38;15.70;99.90
4207;DHT22;2117;47.972;7.830;2022-10-30T18:48:06;15.70;99.90
4207;DHT22;2117;47.972;7.830;2022-10-30T18:50:32;15.70;99.90
4207;DHT22;2117;47.972;7.830;2022-10-30T18:52:59;15.70;99.90
4207;DHT22;2117;47.972;7.830;2022-10-30T18:55:35;15.60;99.90
4207;DHT22;2117;47.972;7.830;2022-10-30T18:58:01;15.60;99.90
4207;DHT22;2117;47.972;7.830;2022-10-30T19:00:27;15.50;99.90
4207;DHT22;2117;47.972;7.830;2022-10-30T19:02:55;15.50;99.90
4207;DHT22;2117;47.972;7.830;2022-10-30T19:07:52;15.50;99.90
4207;DHT22;2117;47.972;7.830;2022-10-30T19:10:18;15.40;99.90
4207;DHT22;2117;47.972;7.830;2022-10-30T19:12:43;15.40;99.90
4207;DHT22;2117;47.972;7.830;2022-10-30T19:15:21;15.30;99.90
4207;DHT22;2117;47.972;7.830;2022-10-30T19:17:48;15.30;99.90
4207;DHT22;2117;47.972;7.830;2022-10-30T19:20:14;15.20;99.90
4207;DHT22;2117;47.972;7.830;2022-10-30T19:22:39;15.10;99.90
4207;DHT22;2117;47.972;7.830;2022-10-30T19:25:15;15.10;99.90
4207;DHT22;2117;47.972;7.830;2022-10-30T19:27:41;15.10;99.90
4207;DHT22;2117;47.972;7.830;2022-10-30T19:30:07;15.00;99.90
4207;DHT22;2117;47.972;7.830;2022-10-30T19:32:33;15.00;99.90
4207;DHT22;2117;47.972;7.830;2022-10-30T19:34:58;14.90;99.90
4207;DHT22;2117;47.972;7.830;2022-10-30T19:37:24;14.80;99.90
4207;DHT22;2117;47.972;7.830;2022-10-30T19:39:49;14.80;99.90
4207;DHT22;2117;47.972;7.830;2022-10-30T19:42:15;14.80;99.90
4207;DHT22;2117;47.972;7.830;2022-10-30T19:44:40;14.70;99.90
4207;DHT22;2117;47.972;7.830;2022-10-30T19:47:08;14.80;99.90
4207;DHT22;2117;47.972;7.830;2022-10-30T19:49:34;14.60;99.90
4207;DHT22;2117;47.972;7.830;2022-10-30T19:52:00;14.60;99.90
4207;DHT22;2117;47.972;7.830;2022-10-30T19:54:26;14.60;99.90
4207;DHT22;2117;47.972;7.830;2022-10-30T19:56:51;14.60;99.90
4207;DHT22;2117;47.972;7.830;2022-10-30T19:59:17;14.60;99.90
4207;DHT22;2117;47.972;7.830;2022-10-30T20:01:42;14.60;99.90
4207;DHT22;2117;47.972;7.830;2022-10-30T20:04:08;14.60;99.90
4207;DHT22;2117;47.972;7.830;2022-10-30T20:06:34;14.60;99.90
4207;DHT22;2117;47.972;7.830;2022-10-30T20:09:00;14.50;99.90
4207;DHT22;2117;47.972;7.830;2022-10-30T20:11:27;14.50;99.90
4207;DHT22;2117;47.972;7.830;2022-10-30T20:13:53;14.70;99.90
4207;DHT22;2117;47.972;7.830;2022-10-30T20:16:19;14.50;99.90
4207;DHT22;2117;47.972;7.830;2022-10-30T20:18:44;14.40;99.90
4207;DHT22;2117;47.972;7.830;2022-10-30T20:21:14;14.40;99.90
4207;DHT22;2117;47.972;7.830;2022-10-30T20:23:39;14.40;99.90
4207;DHT22;2117;47.972;7.830;2022-10-30T20:26:11;14.30;99.90
4207;DHT22;2117;47.972;7.830;2022-10-30T20:28:40;14.30;99.90
4207;DHT22;2117;47.972;7.830;2022-10-30T20:31:09;14.30;99.90